Terminal Aerodrome Forecast
Issued by NWS Twin Cities, MN

Home | Current Version | Previous Version | Text Only | Print | Product List | Glossary Off
Versions: 1 2 3 4 5 6 7 8 9 10 11 12 13 14 15 16 17 18 19 20 21

000
FTUS43 KMPX 211335 AAA
TAFSTC
TAF AMD
KSTC 211335Z 2114/2212 17004KT 1/4SM FG VV002
      TEMPO 2114/2115 1 1/2SM BR BKN005
     FM211500 18007KT P6SM SCT120
     FM211800 20011G20KT P6SM SCT250
     FM220000 18004KT P6SM SCT250
     FM220900 21004KT 3SM BR BKN060=

USA.gov is the U.S. government's official web portal to all federal, state and local government web resources and services.